sensor_id;sensor_type;location;lat;lon;timestamp;temperature;humidity
10812;DHT22;5458;51.496;7.334;2022-10-26T00:01:28;12.10;99.90
10812;DHT22;5458;51.496;7.334;2022-10-26T00:03:55;12.20;99.90
10812;DHT22;5458;51.496;7.334;2022-10-26T00:06:23;12.10;99.90
10812;DHT22;5458;51.496;7.334;2022-10-26T00:08:50;12.20;99.90
10812;DHT22;5458;51.496;7.334;2022-10-26T00:11:17;12.10;99.90
10812;DHT22;5458;51.496;7.334;2022-10-26T00:13:43;12.10;99.90
10812;DHT22;5458;51.496;7.334;2022-10-26T00:16:15;12.10;99.90
10812;DHT22;5458;51.496;7.334;2022-10-26T00:18:41;12.10;99.90
10812;DHT22;5458;51.496;7.334;2022-10-26T00:21:09;12.10;99.90
10812;DHT22;5458;51.496;7.334;2022-10-26T00:23:35;12.10;99.90
10812;DHT22;5458;51.496;7.334;2022-10-26T00:26:01;12.10;99.90
10812;DHT22;5458;51.496;7.334;2022-10-26T00:28:27;12.10;99.90
10812;DHT22;5458;51.496;7.334;2022-10-26T00:30:53;12.10;99.90
10812;DHT22;5458;51.496;7.334;2022-10-26T00:33:18;12.10;99.90
10812;DHT22;5458;51.496;7.334;2022-10-26T00:35:54;12.10;99.90
10812;DHT22;5458;51.496;7.334;2022-10-26T00:38:19;12.10;99.90
10812;DHT22;5458;51.496;7.334;2022-10-26T00:40:45;12.10;99.90
10812;DHT22;5458;51.496;7.334;2022-10-26T00:43:36;12.10;99.90
10812;DHT22;5458;51.496;7.334;2022-10-26T00:46:05;12.10;99.90
10812;DHT22;5458;51.496;7.334;2022-10-26T00:48:35;12.10;99.90
10812;DHT22;5458;51.496;7.334;2022-10-26T00:51:08;12.20;99.90
10812;DHT22;5458;51.496;7.334;2022-10-26T00:53:35;12.20;99.90
10812;DHT22;5458;51.496;7.334;2022-10-26T00:56:01;12.20;99.90
10812;DHT22;5458;51.496;7.334;2022-10-26T00:58:27;12.10;99.90
10812;DHT22;5458;51.496;7.334;2022-10-26T01:00:53;12.20;99.90
10812;DHT22;5458;51.496;7.334;2022-10-26T01:03:21;12.20;99.90
10812;DHT22;5458;51.496;7.334;2022-10-26T01:05:50;12.20;99.90
10812;DHT22;5458;51.496;7.334;2022-10-26T01:08:17;12.10;99.90
10812;DHT22;5458;51.496;7.334;2022-10-26T01:10:43;12.20;99.90
10812;DHT22;5458;51.496;7.334;2022-10-26T01:13:10;12.20;99.90
10812;DHT22;5458;51.496;7.334;2022-10-26T01:33:45;12.30;99.90
10812;DHT22;5458;51.496;7.334;2022-10-26T01:36:25;12.30;99.90
10812;DHT22;5458;51.496;7.334;2022-10-26T01:39:06;12.30;99.90
10812;DHT22;5458;51.496;7.334;2022-10-26T01:41:44;12.30;99.90
10812;DHT22;5458;51.496;7.334;2022-10-26T01:44:45;12.30;99.90
10812;DHT22;5458;51.496;7.334;2022-10-26T01:47:12;12.30;99.90
10812;DHT22;5458;51.496;7.334;2022-10-26T01:49:43;12.40;99.90
10812;DHT22;5458;51.496;7.334;2022-10-26T01:52:11;12.30;99.90
10812;DHT22;5458;51.496;7.334;2022-10-26T01:54:36;12.40;99.90
10812;DHT22;5458;51.496;7.334;2022-10-26T01:57:05;12.40;99.90
10812;DHT22;5458;51.496;7.334;2022-10-26T02:00:07;12.40;99.90
10812;DHT22;5458;51.496;7.334;2022-10-26T02:03:17;12.40;99.90
10812;DHT22;5458;51.496;7.334;2022-10-26T02:05:50;12.40;99.90
10812;DHT22;5458;51.496;7.334;2022-10-26T02:11:27;12.40;99.90
10812;DHT22;5458;51.496;7.334;2022-10-26T02:14:06;12.40;99.90
10812;DHT22;5458;51.496;7.334;2022-10-26T02:24:32;12.40;99.90
10812;DHT22;5458;51.496;7.334;2022-10-26T02:27:00;12.40;99.90
10812;DHT22;5458;51.496;7.334;2022-10-26T02:29:28;12.40;99.90
10812;DHT22;5458;51.496;7.334;2022-10-26T02:31:56;12.50;99.90
10812;DHT22;5458;51.496;7.334;2022-10-26T02:34:25;12.40;99.90
10812;DHT22;5458;51.496;7.334;2022-10-26T02:36:53;12.50;99.90
10812;DHT22;5458;51.496;7.334;2022-10-26T02:39:20;12.50;99.90
10812;DHT22;5458;51.496;7.334;2022-10-26T02:41:46;12.50;99.90
10812;DHT22;5458;51.496;7.334;2022-10-26T02:44:13;12.50;99.90
10812;DHT22;5458;51.496;7.334;2022-10-26T02:46:42;12.50;99.90
10812;DHT22;5458;51.496;7.334;2022-10-26T02:49:08;12.50;99.90
10812;DHT22;5458;51.496;7.334;2022-10-26T02:51:35;12.50;99.90
10812;DHT22;5458;51.496;7.334;2022-10-26T02:59:40;12.50;99.90
10812;DHT22;5458;51.496;7.334;2022-10-26T03:02:07;12.50;99.90
10812;DHT22;5458;51.496;7.334;2022-10-26T03:04:34;12.50;99.90
10812;DHT22;5458;51.496;7.334;2022-10-26T03:07:00;12.50;99.90
10812;DHT22;5458;51.496;7.334;2022-10-26T03:09:26;12.60;99.90
10812;DHT22;5458;51.496;7.334;2022-10-26T03:11:52;12.60;99.90
10812;DHT22;5458;51.496;7.334;2022-10-26T03:14:18;12.60;99.90
10812;DHT22;5458;51.496;7.334;2022-10-26T03:16:44;12.60;99.90
10812;DHT22;5458;51.496;7.334;2022-10-26T03:19:09;12.60;99.90
10812;DHT22;5458;51.496;7.334;2022-10-26T03:21:35;12.60;99.90
10812;DHT22;5458;51.496;7.334;2022-10-26T03:24:01;12.60;99.90
10812;DHT22;5458;51.496;7.334;2022-10-26T03:26:26;12.60;99.90
10812;DHT22;5458;51.496;7.334;2022-10-26T03:28:52;12.60;99.90
10812;DHT22;5458;51.496;7.334;2022-10-26T03:31:17;12.60;99.90
10812;DHT22;5458;51.496;7.334;2022-10-26T03:33:43;12.70;99.90
10812;DHT22;5458;51.496;7.334;2022-10-26T03:36:09;12.70;99.90
10812;DHT22;5458;51.496;7.334;2022-10-26T03:38:34;12.70;99.90
10812;DHT22;5458;51.496;7.334;2022-10-26T03:41:00;12.70;99.90
10812;DHT22;5458;51.496;7.334;2022-10-26T03:43:26;12.70;99.90
10812;DHT22;5458;51.496;7.334;2022-10-26T03:45:52;12.70;99.90
10812;DHT22;5458;51.496;7.334;2022-10-26T03:48:17;12.70;99.90
10812;DHT22;5458;51.496;7.334;2022-10-26T03:50:43;12.70;99.90
10812;DHT22;5458;51.496;7.334;2022-10-26T03:53:09;12.80;99.90
10812;DHT22;5458;51.496;7.334;2022-10-26T03:55:34;12.70;99.90
10812;DHT22;5458;51.496;7.334;2022-10-26T03:58:00;12.80;99.90
10812;DHT22;5458;51.496;7.334;2022-10-26T04:00:26;12.80;99.90
10812;DHT22;5458;51.496;7.334;2022-10-26T04:02:56;12.80;99.90
10812;DHT22;5458;51.496;7.334;2022-10-26T04:05:23;12.80;99.90
10812;DHT22;5458;51.496;7.334;2022-10-26T04:07:57;12.80;99.90
10812;DHT22;5458;51.496;7.334;2022-10-26T04:10:25;12.80;99.90
10812;DHT22;5458;51.496;7.334;2022-10-26T04:12:51;12.80;99.90
10812;DHT22;5458;51.496;7.334;2022-10-26T04:15:17;12.80;99.90
10812;DHT22;5458;51.496;7.334;2022-10-26T04:17:43;12.80;99.90
10812;DHT22;5458;51.496;7.334;2022-10-26T04:20:09;12.80;99.90
10812;DHT22;5458;51.496;7.334;2022-10-26T04:22:35;12.80;99.90
10812;DHT22;5458;51.496;7.334;2022-10-26T04:25:02;12.80;99.90
10812;DHT22;5458;51.496;7.334;2022-10-26T04:27:28;12.80;99.90
10812;DHT22;5458;51.496;7.334;2022-10-26T04:29:53;12.90;99.90
10812;DHT22;5458;51.496;7.334;2022-10-26T04:32:19;12.90;99.90
10812;DHT22;5458;51.496;7.334;2022-10-26T04:34:44;12.90;99.90
10812;DHT22;5458;51.496;7.334;2022-10-26T04:37:10;13.00;99.90
10812;DHT22;5458;51.496;7.334;2022-10-26T04:39:35;12.90;99.90
10812;DHT22;5458;51.496;7.334;2022-10-26T04:42:01;13.00;99.90
10812;DHT22;5458;51.496;7.334;2022-10-26T04:44:26;13.10;99.90
10812;DHT22;5458;51.496;7.334;2022-10-26T04:46:52;13.20;99.90
10812;DHT22;5458;51.496;7.334;2022-10-26T04:49:18;13.20;99.90
10812;DHT22;5458;51.496;7.334;2022-10-26T04:51:43;13.30;99.90
10812;DHT22;5458;51.496;7.334;2022-10-26T04:54:09;13.40;99.90
10812;DHT22;5458;51.496;7.334;2022-10-26T04:56:34;13.50;99.90
10812;DHT22;5458;51.496;7.334;2022-10-26T04:59:00;13.60;99.90
10812;DHT22;5458;51.496;7.334;2022-10-26T05:01:26;13.60;99.90
10812;DHT22;5458;51.496;7.334;2022-10-26T05:03:52;13.70;99.90
10812;DHT22;5458;51.496;7.334;2022-10-26T05:06:19;13.70;99.90
10812;DHT22;5458;51.496;7.334;2022-10-26T05:08:45;13.80;99.90
10812;DHT22;5458;51.496;7.334;2022-10-26T05:11:10;13.90;99.90
10812;DHT22;5458;51.496;7.334;2022-10-26T05:13:36;13.90;99.90
10812;DHT22;5458;51.496;7.334;2022-10-26T05:16:01;14.00;99.90
10812;DHT22;5458;51.496;7.334;2022-10-26T05:18:27;14.00;99.90
10812;DHT22;5458;51.496;7.334;2022-10-26T05:20:53;14.10;99.90
10812;DHT22;5458;51.496;7.334;2022-10-26T05:23:19;14.10;99.90
10812;DHT22;5458;51.496;7.334;2022-10-26T05:25:45;14.10;99.90
10812;DHT22;5458;51.496;7.334;2022-10-26T05:28:11;14.10;99.90
10812;DHT22;5458;51.496;7.334;2022-10-26T05:30:41;14.20;99.90
10812;DHT22;5458;51.496;7.334;2022-10-26T05:33:09;14.10;99.90
10812;DHT22;5458;51.496;7.334;2022-10-26T05:35:35;14.10;99.90
10812;DHT22;5458;51.496;7.334;2022-10-26T05:38:13;14.10;99.90
10812;DHT22;5458;51.496;7.334;2022-10-26T05:40:49;14.10;99.90
10812;DHT22;5458;51.496;7.334;2022-10-26T05:43:18;14.10;99.90
10812;DHT22;5458;51.496;7.334;2022-10-26T05:45:44;14.10;99.90
10812;DHT22;5458;51.496;7.334;2022-10-26T05:48:10;14.20;99.90
10812;DHT22;5458;51.496;7.334;2022-10-26T05:50:35;14.20;99.90
10812;DHT22;5458;51.496;7.334;2022-10-26T05:53:01;14.20;99.90
10812;DHT22;5458;51.496;7.334;2022-10-26T05:55:27;14.20;99.90
10812;DHT22;5458;51.496;7.334;2022-10-26T05:57:53;14.30;99.90
10812;DHT22;5458;51.496;7.334;2022-10-26T06:00:20;14.30;99.90
10812;DHT22;5458;51.496;7.334;2022-10-26T06:05:27;14.40;99.90
10812;DHT22;5458;51.496;7.334;2022-10-26T06:07:53;14.40;99.90
10812;DHT22;5458;51.496;7.334;2022-10-26T06:10:19;14.40;99.90
10812;DHT22;5458;51.496;7.334;2022-10-26T06:12:45;14.40;99.90
10812;DHT22;5458;51.496;7.334;2022-10-26T06:15:18;14.50;99.90
10812;DHT22;5458;51.496;7.334;2022-10-26T06:21:14;14.60;99.90
10812;DHT22;5458;51.496;7.334;2022-10-26T06:32:23;14.60;99.90
10812;DHT22;5458;51.496;7.334;2022-10-26T06:34:51;14.60;99.90
10812;DHT22;5458;51.496;7.334;2022-10-26T06:37:20;14.70;99.90
10812;DHT22;5458;51.496;7.334;2022-10-26T06:39:48;14.70;99.90
10812;DHT22;5458;51.496;7.334;2022-10-26T06:42:14;14.70;99.90
10812;DHT22;5458;51.496;7.334;2022-10-26T06:44:40;14.70;99.90
10812;DHT22;5458;51.496;7.334;2022-10-26T06:52:41;14.70;99.90
10812;DHT22;5458;51.496;7.334;2022-10-26T06:55:15;14.70;99.90
10812;DHT22;5458;51.496;7.334;2022-10-26T06:57:42;14.70;99.90
10812;DHT22;5458;51.496;7.334;2022-10-26T07:00:21;14.70;99.90
10812;DHT22;5458;51.496;7.334;2022-10-26T07:02:48;14.70;99.90
10812;DHT22;5458;51.496;7.334;2022-10-26T07:05:14;14.70;99.90
10812;DHT22;5458;51.496;7.334;2022-10-26T07:07:42;14.80;99.90
10812;DHT22;5458;51.496;7.334;2022-10-26T07:10:08;14.80;99.90
10812;DHT22;5458;51.496;7.334;2022-10-26T07:12:35;14.80;99.90
10812;DHT22;5458;51.496;7.334;2022-10-26T07:15:00;14.80;99.90
10812;DHT22;5458;51.496;7.334;2022-10-26T07:17:26;14.80;99.90
10812;DHT22;5458;51.496;7.334;2022-10-26T07:19:53;14.90;99.90
10812;DHT22;5458;51.496;7.334;2022-10-26T07:22:20;14.90;99.90
10812;DHT22;5458;51.496;7.334;2022-10-26T07:24:45;14.90;99.90
10812;DHT22;5458;51.496;7.334;2022-10-26T07:27:15;15.00;99.90
10812;DHT22;5458;51.496;7.334;2022-10-26T07:29:40;15.00;99.90
10812;DHT22;5458;51.496;7.334;2022-10-26T07:32:06;15.10;99.90
10812;DHT22;5458;51.496;7.334;2022-10-26T07:34:32;15.10;99.90
10812;DHT22;5458;51.496;7.334;2022-10-26T07:37:00;15.20;99.90
10812;DHT22;5458;51.496;7.334;2022-10-26T07:39:26;15.20;99.90
10812;DHT22;5458;51.496;7.334;2022-10-26T07:41:52;15.30;99.90
10812;DHT22;5458;51.496;7.334;2022-10-26T07:44:18;15.40;99.90
10812;DHT22;5458;51.496;7.334;2022-10-26T07:46:43;15.40;99.90
10812;DHT22;5458;51.496;7.334;2022-10-26T07:49:09;15.50;99.90
10812;DHT22;5458;51.496;7.334;2022-10-26T07:51:35;15.50;99.90
10812;DHT22;5458;51.496;7.334;2022-10-26T07:54:01;15.60;99.90
10812;DHT22;5458;51.496;7.334;2022-10-26T07:56:26;15.60;99.90
10812;DHT22;5458;51.496;7.334;2022-10-26T07:58:53;15.80;99.90
10812;DHT22;5458;51.496;7.334;2022-10-26T08:01:19;15.80;99.90
10812;DHT22;5458;51.496;7.334;2022-10-26T08:03:45;16.00;99.90
10812;DHT22;5458;51.496;7.334;2022-10-26T08:06:10;16.20;99.90
10812;DHT22;5458;51.496;7.334;2022-10-26T08:08:36;16.40;99.90
10812;DHT22;5458;51.496;7.334;2022-10-26T08:11:02;16.50;99.90
10812;DHT22;5458;51.496;7.334;2022-10-26T08:13:29;16.80;99.90
10812;DHT22;5458;51.496;7.334;2022-10-26T08:15:59;17.10;99.90
10812;DHT22;5458;51.496;7.334;2022-10-26T08:18:25;17.30;99.90
10812;DHT22;5458;51.496;7.334;2022-10-26T08:20:51;17.50;99.90
10812;DHT22;5458;51.496;7.334;2022-10-26T08:23:17;18.50;99.90
10812;DHT22;5458;51.496;7.334;2022-10-26T08:25:42;21.60;99.90
10812;DHT22;5458;51.496;7.334;2022-10-26T08:28:08;24.90;99.90
10812;DHT22;5458;51.496;7.334;2022-10-26T08:30:33;27.80;92.70
10812;DHT22;5458;51.496;7.334;2022-10-26T08:33:04;29.80;84.60
10812;DHT22;5458;51.496;7.334;2022-10-26T08:35:31;31.00;74.80
10812;DHT22;5458;51.496;7.334;2022-10-26T08:37:56;31.60;68.90
10812;DHT22;5458;51.496;7.334;2022-10-26T08:40:29;30.80;67.50
10812;DHT22;5458;51.496;7.334;2022-10-26T08:45:55;26.90;74.30
10812;DHT22;5458;51.496;7.334;2022-10-26T08:48:26;25.30;80.30
10812;DHT22;5458;51.496;7.334;2022-10-26T08:51:02;24.10;85.60
10812;DHT22;5458;51.496;7.334;2022-10-26T08:56:16;27.70;82.30
10812;DHT22;5458;51.496;7.334;2022-10-26T08:58:52;30.10;73.70
10812;DHT22;5458;51.496;7.334;2022-10-26T09:01:18;32.10;66.30
10812;DHT22;5458;51.496;7.334;2022-10-26T09:03:44;33.30;60.90
10812;DHT22;5458;51.496;7.334;2022-10-26T09:06:35;34.20;58.00
10812;DHT22;5458;51.496;7.334;2022-10-26T09:12:17;35.50;52.50
10812;DHT22;5458;51.496;7.334;2022-10-26T09:18:01;31.00;56.60
10812;DHT22;5458;51.496;7.334;2022-10-26T09:20:56;28.10;62.60
10812;DHT22;5458;51.496;7.334;2022-10-26T09:23:36;27.40;67.60
10812;DHT22;5458;51.496;7.334;2022-10-26T09:26:14;28.10;67.30
10812;DHT22;5458;51.496;7.334;2022-10-26T09:28:45;28.80;64.80
10812;DHT22;5458;51.496;7.334;2022-10-26T09:31:15;29.30;63.90
10812;DHT22;5458;51.496;7.334;2022-10-26T09:33:41;29.00;65.30
10812;DHT22;5458;51.496;7.334;2022-10-26T09:36:07;28.00;67.30
10812;DHT22;5458;51.496;7.334;2022-10-26T09:38:50;26.80;70.00
10812;DHT22;5458;51.496;7.334;2022-10-26T09:44:55;24.10;80.50
10812;DHT22;5458;51.496;7.334;2022-10-26T09:49:45;22.80;88.60
10812;DHT22;5458;51.496;7.334;2022-10-26T09:52:15;22.40;90.40
10812;DHT22;5458;51.496;7.334;2022-10-26T09:54:41;22.10;92.00
10812;DHT22;5458;51.496;7.334;2022-10-26T09:57:07;22.10;92.80
10812;DHT22;5458;51.496;7.334;2022-10-26T09:59:37;22.10;93.30
10812;DHT22;5458;51.496;7.334;2022-10-26T10:02:39;22.10;93.10
10812;DHT22;5458;51.496;7.334;2022-10-26T10:05:37;21.70;93.30
10812;DHT22;5458;51.496;7.334;2022-10-26T10:08:20;21.30;94.10
10812;DHT22;5458;51.496;7.334;2022-10-26T10:10:57;21.10;94.60
10812;DHT22;5458;51.496;7.334;2022-10-26T10:13:26;20.90;95.10
10812;DHT22;5458;51.496;7.334;2022-10-26T10:15:56;20.70;95.60
10812;DHT22;5458;51.496;7.334;2022-10-26T10:18:23;20.60;96.10
10812;DHT22;5458;51.496;7.334;2022-10-26T10:20:56;20.60;96.70
10812;DHT22;5458;51.496;7.334;2022-10-26T10:23:35;20.70;97.10
10812;DHT22;5458;51.496;7.334;2022-10-26T10:26:07;20.80;97.00
10812;DHT22;5458;51.496;7.334;2022-10-26T10:28:33;21.00;97.20
10812;DHT22;5458;51.496;7.334;2022-10-26T10:31:04;21.00;97.00
10812;DHT22;5458;51.496;7.334;2022-10-26T10:33:34;20.90;97.10
10812;DHT22;5458;51.496;7.334;2022-10-26T10:36:00;20.80;97.40
10812;DHT22;5458;51.496;7.334;2022-10-26T10:38:28;20.70;97.70
10812;DHT22;5458;51.496;7.334;2022-10-26T10:40:58;20.50;97.60
10812;DHT22;5458;51.496;7.334;2022-10-26T10:43:26;20.40;98.20
10812;DHT22;5458;51.496;7.334;2022-10-26T10:45:54;20.40;98.40
10812;DHT22;5458;51.496;7.334;2022-10-26T10:48:23;20.50;99.00
10812;DHT22;5458;51.496;7.334;2022-10-26T10:50:59;20.50;99.10
10812;DHT22;5458;51.496;7.334;2022-10-26T10:53:49;20.60;99.30
10812;DHT22;5458;51.496;7.334;2022-10-26T10:56:32;20.60;99.10
10812;DHT22;5458;51.496;7.334;2022-10-26T11:05:03;20.70;99.80
10812;DHT22;5458;51.496;7.334;2022-10-26T11:07:41;20.80;99.80
10812;DHT22;5458;51.496;7.334;2022-10-26T11:10:14;20.80;99.90
10812;DHT22;5458;51.496;7.334;2022-10-26T11:12:49;20.80;99.80
10812;DHT22;5458;51.496;7.334;2022-10-26T11:15:21;20.90;99.80
10812;DHT22;5458;51.496;7.334;2022-10-26T11:18:03;20.90;99.80
10812;DHT22;5458;51.496;7.334;2022-10-26T11:20:34;20.90;99.60
10812;DHT22;5458;51.496;7.334;2022-10-26T11:23:06;20.90;99.70
10812;DHT22;5458;51.496;7.334;2022-10-26T11:25:55;20.80;99.90
10812;DHT22;5458;51.496;7.334;2022-10-26T11:31:08;20.70;99.90
10812;DHT22;5458;51.496;7.334;2022-10-26T11:33:41;20.70;99.90
10812;DHT22;5458;51.496;7.334;2022-10-26T11:36:11;20.70;99.90
10812;DHT22;5458;51.496;7.334;2022-10-26T11:38:48;20.70;99.90
10812;DHT22;5458;51.496;7.334;2022-10-26T11:43:49;20.70;99.90
10812;DHT22;5458;51.496;7.334;2022-10-26T11:46:19;20.70;99.90
10812;DHT22;5458;51.496;7.334;2022-10-26T11:51:17;20.70;99.90
10812;DHT22;5458;51.496;7.334;2022-10-26T11:53:45;20.70;99.90
10812;DHT22;5458;51.496;7.334;2022-10-26T11:56:29;20.60;99.90
10812;DHT22;5458;51.496;7.334;2022-10-26T11:58:56;20.70;99.90
10812;DHT22;5458;51.496;7.334;2022-10-26T12:01:24;20.70;99.90
10812;DHT22;5458;51.496;7.334;2022-10-26T12:03:53;20.70;99.90
10812;DHT22;5458;51.496;7.334;2022-10-26T12:06:26;20.70;99.90
10812;DHT22;5458;51.496;7.334;2022-10-26T12:09:19;20.70;99.90
10812;DHT22;5458;51.496;7.334;2022-10-26T12:12:47;20.70;99.90
10812;DHT22;5458;51.496;7.334;2022-10-26T12:17:38;20.70;99.90
10812;DHT22;5458;51.496;7.334;2022-10-26T12:20:38;20.70;99.90
10812;DHT22;5458;51.496;7.334;2022-10-26T12:23:10;20.60;99.90
10812;DHT22;5458;51.496;7.334;2022-10-26T12:25:36;20.70;99.90
10812;DHT22;5458;51.496;7.334;2022-10-26T12:28:02;20.60;99.90
10812;DHT22;5458;51.496;7.334;2022-10-26T12:30:33;20.60;99.90
10812;DHT22;5458;51.496;7.334;2022-10-26T12:32:59;20.70;99.90
10812;DHT22;5458;51.496;7.334;2022-10-26T12:35:44;20.70;99.90
10812;DHT22;5458;51.496;7.334;2022-10-26T12:41:07;20.70;99.90
10812;DHT22;5458;51.496;7.334;2022-10-26T12:43:38;20.60;99.90
10812;DHT22;5458;51.496;7.334;2022-10-26T12:48:47;20.60;99.90
10812;DHT22;5458;51.496;7.334;2022-10-26T12:53:59;20.60;99.90
10812;DHT22;5458;51.496;7.334;2022-10-26T13:07:23;20.60;99.90
10812;DHT22;5458;51.496;7.334;2022-10-26T13:12:52;20.60;99.90
10812;DHT22;5458;51.496;7.334;2022-10-26T13:15:25;20.60;99.90
10812;DHT22;5458;51.496;7.334;2022-10-26T13:18:16;20.70;99.90
10812;DHT22;5458;51.496;7.334;2022-10-26T13:21:08;20.80;99.90
10812;DHT22;5458;51.496;7.334;2022-10-26T13:23:39;20.80;99.90
10812;DHT22;5458;51.496;7.334;2022-10-26T13:26:10;20.80;99.90
10812;DHT22;5458;51.496;7.334;2022-10-26T13:31:03;20.80;99.90
10812;DHT22;5458;51.496;7.334;2022-10-26T13:33:37;20.70;99.90
10812;DHT22;5458;51.496;7.334;2022-10-26T13:36:15;20.70;99.90
10812;DHT22;5458;51.496;7.334;2022-10-26T13:38:44;20.70;99.90
10812;DHT22;5458;51.496;7.334;2022-10-26T13:41:19;20.70;99.90
10812;DHT22;5458;51.496;7.334;2022-10-26T13:43:46;20.70;99.90
10812;DHT22;5458;51.496;7.334;2022-10-26T13:46:22;20.80;99.90
10812;DHT22;5458;51.496;7.334;2022-10-26T13:48:51;20.80;99.90
10812;DHT22;5458;51.496;7.334;2022-10-26T13:51:20;20.80;99.90
10812;DHT22;5458;51.496;7.334;2022-10-26T13:53:56;20.90;99.90
10812;DHT22;5458;51.496;7.334;2022-10-26T13:56:31;20.90;99.90
10812;DHT22;5458;51.496;7.334;2022-10-26T13:59:02;20.80;99.90
10812;DHT22;5458;51.496;7.334;2022-10-26T14:01:28;20.80;99.90
10812;DHT22;5458;51.496;7.334;2022-10-26T14:03:54;20.80;99.90
10812;DHT22;5458;51.496;7.334;2022-10-26T14:06:35;20.80;99.90
10812;DHT22;5458;51.496;7.334;2022-10-26T14:09:05;20.80;99.90
10812;DHT22;5458;51.496;7.334;2022-10-26T14:11:34;20.80;99.90
10812;DHT22;5458;51.496;7.334;2022-10-26T14:14:01;20.80;99.90
10812;DHT22;5458;51.496;7.334;2022-10-26T14:16:29;20.70;99.90
10812;DHT22;5458;51.496;7.334;2022-10-26T14:18:56;20.70;99.90
10812;DHT22;5458;51.496;7.334;2022-10-26T14:21:22;20.70;99.90
10812;DHT22;5458;51.496;7.334;2022-10-26T14:23:58;20.60;99.90
10812;DHT22;5458;51.496;7.334;2022-10-26T14:26:29;20.60;99.90
10812;DHT22;5458;51.496;7.334;2022-10-26T14:28:57;20.60;99.90
10812;DHT22;5458;51.496;7.334;2022-10-26T14:33:54;20.60;99.90
10812;DHT22;5458;51.496;7.334;2022-10-26T14:36:26;20.60;99.90
10812;DHT22;5458;51.496;7.334;2022-10-26T14:38:58;20.60;99.90
10812;DHT22;5458;51.496;7.334;2022-10-26T14:41:24;20.50;99.90
10812;DHT22;5458;51.496;7.334;2022-10-26T14:43:51;20.50;99.90
10812;DHT22;5458;51.496;7.334;2022-10-26T14:46:18;20.50;99.90
10812;DHT22;5458;51.496;7.334;2022-10-26T14:48:58;20.40;99.90
10812;DHT22;5458;51.496;7.334;2022-10-26T14:51:29;20.40;99.90
10812;DHT22;5458;51.496;7.334;2022-10-26T14:53:58;20.40;99.90
10812;DHT22;5458;51.496;7.334;2022-10-26T14:59:17;20.30;99.90
10812;DHT22;5458;51.496;7.334;2022-10-26T15:02:12;20.30;99.90
10812;DHT22;5458;51.496;7.334;2022-10-26T15:04:41;20.30;99.90
10812;DHT22;5458;51.496;7.334;2022-10-26T15:07:20;20.30;99.90
10812;DHT22;5458;51.496;7.334;2022-10-26T15:09:50;20.20;99.90
10812;DHT22;5458;51.496;7.334;2022-10-26T15:12:36;20.20;99.90
10812;DHT22;5458;51.496;7.334;2022-10-26T15:15:29;20.10;99.90
10812;DHT22;5458;51.496;7.334;2022-10-26T15:17:55;20.10;99.90
10812;DHT22;5458;51.496;7.334;2022-10-26T15:20:24;20.00;99.90
10812;DHT22;5458;51.496;7.334;2022-10-26T15:25:23;20.00;99.90
10812;DHT22;5458;51.496;7.334;2022-10-26T15:27:49;20.00;99.90
10812;DHT22;5458;51.496;7.334;2022-10-26T15:32:47;19.90;99.90
10812;DHT22;5458;51.496;7.334;2022-10-26T15:35:29;19.80;99.90
10812;DHT22;5458;51.496;7.334;2022-10-26T15:37:56;19.70;99.90
10812;DHT22;5458;51.496;7.334;2022-10-26T15:40:23;19.70;99.90
10812;DHT22;5458;51.496;7.334;2022-10-26T15:42:51;19.70;99.90
10812;DHT22;5458;51.496;7.334;2022-10-26T15:47:45;19.60;99.90
10812;DHT22;5458;51.496;7.334;2022-10-26T15:50:16;19.60;99.90
10812;DHT22;5458;51.496;7.334;2022-10-26T15:52:42;19.60;99.90
10812;DHT22;5458;51.496;7.334;2022-10-26T15:55:08;19.50;99.90
10812;DHT22;5458;51.496;7.334;2022-10-26T15:57:34;19.50;99.90
10812;DHT22;5458;51.496;7.334;2022-10-26T16:00:00;19.40;99.90
10812;DHT22;5458;51.496;7.334;2022-10-26T16:02:26;19.30;99.90
10812;DHT22;5458;51.496;7.334;2022-10-26T16:04:52;19.30;99.90
10812;DHT22;5458;51.496;7.334;2022-10-26T16:07:25;19.20;99.90
10812;DHT22;5458;51.496;7.334;2022-10-26T16:09:52;19.20;99.90
10812;DHT22;5458;51.496;7.334;2022-10-26T16:12:18;19.10;99.90
10812;DHT22;5458;51.496;7.334;2022-10-26T16:14:43;19.10;99.90
10812;DHT22;5458;51.496;7.334;2022-10-26T16:17:09;19.00;99.90
10812;DHT22;5458;51.496;7.334;2022-10-26T16:19:35;19.00;99.90
10812;DHT22;5458;51.496;7.334;2022-10-26T16:22:00;18.90;99.90
10812;DHT22;5458;51.496;7.334;2022-10-26T16:24:27;18.90;99.90
10812;DHT22;5458;51.496;7.334;2022-10-26T16:26:54;18.90;99.90
10812;DHT22;5458;51.496;7.334;2022-10-26T16:29:20;18.80;99.90
10812;DHT22;5458;51.496;7.334;2022-10-26T16:31:47;18.70;99.90
10812;DHT22;5458;51.496;7.334;2022-10-26T16:34:12;18.70;99.90
10812;DHT22;5458;51.496;7.334;2022-10-26T16:36:38;18.60;99.90
10812;DHT22;5458;51.496;7.334;2022-10-26T16:39:04;18.60;99.90
10812;DHT22;5458;51.496;7.334;2022-10-26T16:41:30;18.50;99.90
10812;DHT22;5458;51.496;7.334;2022-10-26T16:43:59;18.50;99.90
10812;DHT22;5458;51.496;7.334;2022-10-26T16:46:24;18.40;99.90
10812;DHT22;5458;51.496;7.334;2022-10-26T16:48:50;18.40;99.90
10812;DHT22;5458;51.496;7.334;2022-10-26T16:51:22;18.30;99.90
10812;DHT22;5458;51.496;7.334;2022-10-26T16:53:50;18.30;99.90
10812;DHT22;5458;51.496;7.334;2022-10-26T16:56:18;18.30;99.90
10812;DHT22;5458;51.496;7.334;2022-10-26T16:58:44;18.30;99.90
10812;DHT22;5458;51.496;7.334;2022-10-26T17:01:11;18.20;99.90
10812;DHT22;5458;51.496;7.334;2022-10-26T17:03:38;18.20;99.90
10812;DHT22;5458;51.496;7.334;2022-10-26T17:06:05;18.10;99.90
10812;DHT22;5458;51.496;7.334;2022-10-26T17:08:33;18.10;99.90
10812;DHT22;5458;51.496;7.334;2022-10-26T17:11:07;18.10;99.90
10812;DHT22;5458;51.496;7.334;2022-10-26T17:13:34;18.00;99.90
10812;DHT22;5458;51.496;7.334;2022-10-26T17:16:08;18.00;99.90
10812;DHT22;5458;51.496;7.334;2022-10-26T17:18:34;18.00;99.90
10812;DHT22;5458;51.496;7.334;2022-10-26T17:21:00;17.90;99.90
10812;DHT22;5458;51.496;7.334;2022-10-26T17:23:26;17.90;99.90
10812;DHT22;5458;51.496;7.334;2022-10-26T17:25:51;17.90;99.90
10812;DHT22;5458;51.496;7.334;2022-10-26T17:28:17;17.80;99.90
10812;DHT22;5458;51.496;7.334;2022-10-26T17:30:43;17.80;99.90
10812;DHT22;5458;51.496;7.334;2022-10-26T17:33:09;17.80;99.90
10812;DHT22;5458;51.496;7.334;2022-10-26T17:35:35;17.80;99.90
10812;DHT22;5458;51.496;7.334;2022-10-26T17:38:01;17.80;99.90
10812;DHT22;5458;51.496;7.334;2022-10-26T17:40:27;17.80;99.90
10812;DHT22;5458;51.496;7.334;2022-10-26T17:42:53;17.80;99.90
10812;DHT22;5458;51.496;7.334;2022-10-26T17:45:18;17.80;99.90
10812;DHT22;5458;51.496;7.334;2022-10-26T17:47:44;17.70;99.90
10812;DHT22;5458;51.496;7.334;2022-10-26T17:50:10;17.70;99.90
10812;DHT22;5458;51.496;7.334;2022-10-26T17:52:35;17.70;99.90
10812;DHT22;5458;51.496;7.334;2022-10-26T17:55:01;17.70;99.90
10812;DHT22;5458;51.496;7.334;2022-10-26T17:57:27;17.70;99.90
10812;DHT22;5458;51.496;7.334;2022-10-26T17:59:52;17.70;99.90
10812;DHT22;5458;51.496;7.334;2022-10-26T18:02:18;17.70;99.90
10812;DHT22;5458;51.496;7.334;2022-10-26T18:04:43;17.60;99.90
10812;DHT22;5458;51.496;7.334;2022-10-26T18:07:10;17.60;99.90